sensor_id;sensor_type;location;lat;lon;timestamp;P1;durP1;ratioP1;P2;durP2;ratioP2
41755;SDS011;27435;48.480;9.258;2024-03-23T00:53:44;4.57;;;1.30;;
41755;SDS011;27435;48.480;9.258;2024-03-23T00:56:10;4.57;;;1.80;;
41755;SDS011;27435;48.480;9.258;2024-03-23T00:58:35;3.87;;;1.50;;
41755;SDS011;27435;48.480;9.258;2024-03-23T01:01:01;2.87;;;1.50;;
41755;SDS011;27435;48.480;9.258;2024-03-23T01:03:28;4.07;;;1.83;;
41755;SDS011;27435;48.480;9.258;2024-03-23T01:05:54;3.17;;;1.50;;
41755;SDS011;27435;48.480;9.258;2024-03-23T01:08:24;4.13;;;1.50;;
41755;SDS011;27435;48.480;9.258;2024-03-23T01:10:56;3.97;;;1.60;;
41755;SDS011;27435;48.480;9.258;2024-03-23T01:13:23;3.97;;;1.57;;
41755;SDS011;27435;48.480;9.258;2024-03-23T01:15:52;11.83;;;1.77;;
41755;SDS011;27435;48.480;9.258;2024-03-23T01:18:19;7.00;;;2.27;;
41755;SDS011;27435;48.480;9.258;2024-03-23T01:20:45;5.97;;;1.60;;
41755;SDS011;27435;48.480;9.258;2024-03-23T01:23:12;6.50;;;1.27;;
41755;SDS011;27435;48.480;9.258;2024-03-23T01:25:38;2.87;;;1.33;;
41755;SDS011;27435;48.480;9.258;2024-03-23T01:28:04;6.03;;;1.67;;
41755;SDS011;27435;48.480;9.258;2024-03-23T01:30:31;5.07;;;1.50;;
41755;SDS011;27435;48.480;9.258;2024-03-23T01:32:57;6.60;;;1.90;;
41755;SDS011;27435;48.480;9.258;2024-03-23T01:35:23;4.50;;;1.57;;
41755;SDS011;27435;48.480;9.258;2024-03-23T01:37:49;5.70;;;1.43;;
41755;SDS011;27435;48.480;9.258;2024-03-23T01:40:16;3.73;;;1.40;;
41755;SDS011;27435;48.480;9.258;2024-03-23T01:42:41;3.47;;;1.70;;
41755;SDS011;27435;48.480;9.258;2024-03-23T01:45:07;5.07;;;1.30;;
41755;SDS011;27435;48.480;9.258;2024-03-23T01:47:34;4.87;;;1.50;;
41755;SDS011;27435;48.480;9.258;2024-03-23T01:50:00;3.40;;;1.37;;
41755;SDS011;27435;48.480;9.258;2024-03-23T01:52:26;9.10;;;1.60;;
41755;SDS011;27435;48.480;9.258;2024-03-23T01:54:53;4.33;;;2.37;;
41755;SDS011;27435;48.480;9.258;2024-03-23T01:57:19;4.17;;;1.57;;
41755;SDS011;27435;48.480;9.258;2024-03-23T01:59:46;5.00;;;1.67;;
41755;SDS011;27435;48.480;9.258;2024-03-23T02:02:12;4.60;;;1.70;;
41755;SDS011;27435;48.480;9.258;2024-03-23T02:04:37;3.73;;;1.67;;
41755;SDS011;27435;48.480;9.258;2024-03-23T02:07:03;4.60;;;1.80;;
41755;SDS011;27435;48.480;9.258;2024-03-23T02:09:31;4.00;;;1.83;;
41755;SDS011;27435;48.480;9.258;2024-03-23T02:11:57;5.73;;;1.63;;
41755;SDS011;27435;48.480;9.258;2024-03-23T02:14:23;4.17;;;1.70;;
41755;SDS011;27435;48.480;9.258;2024-03-23T02:16:48;3.07;;;1.67;;
41755;SDS011;27435;48.480;9.258;2024-03-23T02:19:14;2.97;;;1.50;;
41755;SDS011;27435;48.480;9.258;2024-03-23T02:21:39;9.13;;;1.83;;
41755;SDS011;27435;48.480;9.258;2024-03-23T02:24:05;3.70;;;1.73;;
41755;SDS011;27435;48.480;9.258;2024-03-23T02:26:31;5.07;;;1.57;;
41755;SDS011;27435;48.480;9.258;2024-03-23T02:28:57;3.63;;;1.47;;
41755;SDS011;27435;48.480;9.258;2024-03-23T02:31:22;6.17;;;1.30;;
41755;SDS011;27435;48.480;9.258;2024-03-23T02:33:48;3.43;;;1.50;;
41755;SDS011;27435;48.480;9.258;2024-03-23T02:36:13;4.27;;;1.30;;
41755;SDS011;27435;48.480;9.258;2024-03-23T02:38:39;3.87;;;1.70;;
41755;SDS011;27435;48.480;9.258;2024-03-23T02:41:04;4.03;;;1.57;;
41755;SDS011;27435;48.480;9.258;2024-03-23T02:43:30;5.53;;;1.83;;
41755;SDS011;27435;48.480;9.258;2024-03-23T02:45:56;4.67;;;1.80;;
41755;SDS011;27435;48.480;9.258;2024-03-23T02:48:22;5.63;;;1.80;;
41755;SDS011;27435;48.480;9.258;2024-03-23T02:50:49;4.00;;;1.67;;
41755;SDS011;27435;48.480;9.258;2024-03-23T02:53:14;4.30;;;1.43;;
41755;SDS011;27435;48.480;9.258;2024-03-23T02:55:40;2.93;;;1.40;;
41755;SDS011;27435;48.480;9.258;2024-03-23T02:58:06;4.70;;;1.70;;
41755;SDS011;27435;48.480;9.258;2024-03-23T03:00:31;4.80;;;1.43;;
41755;SDS011;27435;48.480;9.258;2024-03-23T03:02:57;5.13;;;2.03;;
41755;SDS011;27435;48.480;9.258;2024-03-23T03:05:23;2.23;;;1.43;;
41755;SDS011;27435;48.480;9.258;2024-03-23T03:07:48;5.60;;;1.57;;
41755;SDS011;27435;48.480;9.258;2024-03-23T03:10:14;3.63;;;1.33;;
41755;SDS011;27435;48.480;9.258;2024-03-23T03:12:39;3.43;;;1.47;;
41755;SDS011;27435;48.480;9.258;2024-03-23T03:15:05;5.37;;;1.80;;
41755;SDS011;27435;48.480;9.258;2024-03-23T03:17:31;8.63;;;1.83;;
41755;SDS011;27435;48.480;9.258;2024-03-23T03:19:56;3.90;;;1.57;;
41755;SDS011;27435;48.480;9.258;2024-03-23T03:22:22;3.03;;;1.63;;
41755;SDS011;27435;48.480;9.258;2024-03-23T03:24:48;3.67;;;1.37;;
41755;SDS011;27435;48.480;9.258;2024-03-23T03:27:14;5.30;;;1.37;;
41755;SDS011;27435;48.480;9.258;2024-03-23T03:29:40;2.77;;;1.40;;
41755;SDS011;27435;48.480;9.258;2024-03-23T03:32:05;3.93;;;1.47;;
41755;SDS011;27435;48.480;9.258;2024-03-23T03:34:31;3.97;;;1.73;;
41755;SDS011;27435;48.480;9.258;2024-03-23T03:36:57;4.47;;;1.73;;
41755;SDS011;27435;48.480;9.258;2024-03-23T03:39:23;4.57;;;1.70;;
41755;SDS011;27435;48.480;9.258;2024-03-23T03:41:49;3.07;;;1.43;;
41755;SDS011;27435;48.480;9.258;2024-03-23T03:44:15;3.50;;;1.60;;
41755;SDS011;27435;48.480;9.258;2024-03-23T03:46:41;3.60;;;1.60;;
41755;SDS011;27435;48.480;9.258;2024-03-23T03:49:07;3.93;;;1.63;;
41755;SDS011;27435;48.480;9.258;2024-03-23T03:51:33;3.53;;;1.53;;
41755;SDS011;27435;48.480;9.258;2024-03-23T03:53:59;3.70;;;1.70;;
41755;SDS011;27435;48.480;9.258;2024-03-23T03:56:24;3.43;;;1.80;;
41755;SDS011;27435;48.480;9.258;2024-03-23T03:58:50;5.80;;;2.10;;
41755;SDS011;27435;48.480;9.258;2024-03-23T04:01:16;3.73;;;1.70;;
41755;SDS011;27435;48.480;9.258;2024-03-23T04:03:42;5.03;;;1.63;;
41755;SDS011;27435;48.480;9.258;2024-03-23T04:06:11;5.63;;;1.93;;
41755;SDS011;27435;48.480;9.258;2024-03-23T04:08:43;3.87;;;2.03;;
41755;SDS011;27435;48.480;9.258;2024-03-23T04:11:08;4.40;;;1.87;;
41755;SDS011;27435;48.480;9.258;2024-03-23T04:13:34;5.20;;;1.83;;
41755;SDS011;27435;48.480;9.258;2024-03-23T04:15:59;4.77;;;2.37;;
41755;SDS011;27435;48.480;9.258;2024-03-23T04:18:25;6.00;;;1.80;;
41755;SDS011;27435;48.480;9.258;2024-03-23T04:20:51;2.97;;;1.70;;
41755;SDS011;27435;48.480;9.258;2024-03-23T04:23:17;4.53;;;2.23;;
41755;SDS011;27435;48.480;9.258;2024-03-23T04:25:43;6.80;;;1.87;;
41755;SDS011;27435;48.480;9.258;2024-03-23T04:28:09;3.17;;;1.60;;
41755;SDS011;27435;48.480;9.258;2024-03-23T04:30:34;5.57;;;1.90;;
41755;SDS011;27435;48.480;9.258;2024-03-23T04:33:00;4.70;;;1.93;;
41755;SDS011;27435;48.480;9.258;2024-03-23T04:35:26;4.23;;;1.67;;
41755;SDS011;27435;48.480;9.258;2024-03-23T04:37:52;6.50;;;1.30;;
41755;SDS011;27435;48.480;9.258;2024-03-23T04:40:18;6.67;;;1.90;;
41755;SDS011;27435;48.480;9.258;2024-03-23T04:42:44;4.43;;;1.70;;
41755;SDS011;27435;48.480;9.258;2024-03-23T04:45:10;5.70;;;1.70;;
41755;SDS011;27435;48.480;9.258;2024-03-23T04:47:35;4.30;;;1.87;;
41755;SDS011;27435;48.480;9.258;2024-03-23T04:50:02;3.63;;;1.90;;
41755;SDS011;27435;48.480;9.258;2024-03-23T04:52:29;3.93;;;1.70;;
41755;SDS011;27435;48.480;9.258;2024-03-23T04:54:55;7.40;;;1.57;;
41755;SDS011;27435;48.480;9.258;2024-03-23T04:57:20;4.00;;;2.17;;
41755;SDS011;27435;48.480;9.258;2024-03-23T04:59:46;4.97;;;1.70;;
41755;SDS011;27435;48.480;9.258;2024-03-23T05:02:12;3.10;;;1.70;;
41755;SDS011;27435;48.480;9.258;2024-03-23T05:04:38;8.43;;;2.20;;
41755;SDS011;27435;48.480;9.258;2024-03-23T05:07:05;3.77;;;1.60;;
41755;SDS011;27435;48.480;9.258;2024-03-23T05:09:31;4.40;;;1.93;;
41755;SDS011;27435;48.480;9.258;2024-03-23T05:11:58;7.30;;;1.67;;
41755;SDS011;27435;48.480;9.258;2024-03-23T05:14:25;6.83;;;1.90;;
41755;SDS011;27435;48.480;9.258;2024-03-23T05:16:51;7.90;;;1.90;;
41755;SDS011;27435;48.480;9.258;2024-03-23T05:19:17;5.73;;;1.87;;
41755;SDS011;27435;48.480;9.258;2024-03-23T05:21:43;3.63;;;1.70;;
41755;SDS011;27435;48.480;9.258;2024-03-23T05:24:08;4.83;;;2.10;;
41755;SDS011;27435;48.480;9.258;2024-03-23T05:26:34;3.23;;;1.83;;
41755;SDS011;27435;48.480;9.258;2024-03-23T05:29:00;4.30;;;2.07;;
41755;SDS011;27435;48.480;9.258;2024-03-23T05:31:28;3.77;;;1.73;;
41755;SDS011;27435;48.480;9.258;2024-03-23T05:33:55;4.13;;;1.50;;
41755;SDS011;27435;48.480;9.258;2024-03-23T05:36:21;10.63;;;2.10;;
41755;SDS011;27435;48.480;9.258;2024-03-23T05:38:47;2.80;;;1.50;;
41755;SDS011;27435;48.480;9.258;2024-03-23T05:41:13;4.03;;;2.03;;
41755;SDS011;27435;48.480;9.258;2024-03-23T05:43:38;4.77;;;1.90;;
41755;SDS011;27435;48.480;9.258;2024-03-23T05:46:04;8.20;;;3.00;;
41755;SDS011;27435;48.480;9.258;2024-03-23T05:48:30;11.43;;;3.37;;
41755;SDS011;27435;48.480;9.258;2024-03-23T05:50:56;9.00;;;4.43;;
41755;SDS011;27435;48.480;9.258;2024-03-23T05:53:23;7.07;;;3.90;;
41755;SDS011;27435;48.480;9.258;2024-03-23T05:55:49;7.07;;;4.40;;
41755;SDS011;27435;48.480;9.258;2024-03-23T05:58:16;6.47;;;4.20;;
41755;SDS011;27435;48.480;9.258;2024-03-23T06:00:43;10.23;;;5.10;;
41755;SDS011;27435;48.480;9.258;2024-03-23T06:03:09;6.60;;;3.93;;
41755;SDS011;27435;48.480;9.258;2024-03-23T06:05:38;7.13;;;3.93;;
41755;SDS011;27435;48.480;9.258;2024-03-23T06:08:04;7.53;;;4.07;;
41755;SDS011;27435;48.480;9.258;2024-03-23T06:10:30;8.93;;;4.37;;
41755;SDS011;27435;48.480;9.258;2024-03-23T06:12:56;7.63;;;4.60;;
41755;SDS011;27435;48.480;9.258;2024-03-23T06:15:23;7.30;;;4.40;;
41755;SDS011;27435;48.480;9.258;2024-03-23T06:17:49;8.67;;;4.73;;
41755;SDS011;27435;48.480;9.258;2024-03-23T06:20:15;9.97;;;4.70;;
41755;SDS011;27435;48.480;9.258;2024-03-23T06:22:40;7.37;;;4.67;;
41755;SDS011;27435;48.480;9.258;2024-03-23T06:25:06;10.97;;;4.10;;
41755;SDS011;27435;48.480;9.258;2024-03-23T06:27:32;7.13;;;4.40;;
41755;SDS011;27435;48.480;9.258;2024-03-23T06:29:58;8.43;;;4.53;;
41755;SDS011;27435;48.480;9.258;2024-03-23T06:32:24;7.30;;;4.17;;
41755;SDS011;27435;48.480;9.258;2024-03-23T06:34:50;7.63;;;4.30;;
41755;SDS011;27435;48.480;9.258;2024-03-23T06:37:16;6.87;;;3.93;;
41755;SDS011;27435;48.480;9.258;2024-03-23T06:39:41;6.37;;;2.80;;
41755;SDS011;27435;48.480;9.258;2024-03-23T06:42:07;9.07;;;3.07;;
41755;SDS011;27435;48.480;9.258;2024-03-23T06:44:33;5.40;;;2.70;;
41755;SDS011;27435;48.480;9.258;2024-03-23T06:46:59;5.33;;;2.30;;
41755;SDS011;27435;48.480;9.258;2024-03-23T06:49:24;4.30;;;2.47;;
41755;SDS011;27435;48.480;9.258;2024-03-23T06:51:50;5.33;;;2.27;;
41755;SDS011;27435;48.480;9.258;2024-03-23T06:54:17;4.57;;;2.00;;
41755;SDS011;27435;48.480;9.258;2024-03-23T06:56:46;5.63;;;2.27;;
41755;SDS011;27435;48.480;9.258;2024-03-23T06:59:11;3.53;;;1.80;;
41755;SDS011;27435;48.480;9.258;2024-03-23T07:01:37;4.37;;;1.77;;
41755;SDS011;27435;48.480;9.258;2024-03-23T07:04:03;3.70;;;1.90;;
41755;SDS011;27435;48.480;9.258;2024-03-23T07:06:29;3.37;;;1.80;;
41755;SDS011;27435;48.480;9.258;2024-03-23T07:08:58;3.73;;;1.87;;
41755;SDS011;27435;48.480;9.258;2024-03-23T07:11:23;2.43;;;1.47;;
41755;SDS011;27435;48.480;9.258;2024-03-23T07:13:50;2.70;;;1.63;;
41755;SDS011;27435;48.480;9.258;2024-03-23T07:16:16;3.73;;;1.23;;
41755;SDS011;27435;48.480;9.258;2024-03-23T07:18:42;1.13;;;0.60;;
41755;SDS011;27435;48.480;9.258;2024-03-23T07:21:08;2.83;;;0.63;;
41755;SDS011;27435;48.480;9.258;2024-03-23T07:23:33;1.90;;;0.77;;
41755;SDS011;27435;48.480;9.258;2024-03-23T07:26:03;1.80;;;0.70;;
41755;SDS011;27435;48.480;9.258;2024-03-23T07:28:32;3.07;;;1.50;;
41755;SDS011;27435;48.480;9.258;2024-03-23T07:31:05;3.20;;;1.63;;
41755;SDS011;27435;48.480;9.258;2024-03-23T07:33:34;2.65;;;1.52;;
41755;SDS011;27435;48.480;9.258;2024-03-23T07:36:00;4.37;;;0.77;;
41755;SDS011;27435;48.480;9.258;2024-03-23T07:38:27;2.17;;;1.07;;
41755;SDS011;27435;48.480;9.258;2024-03-23T07:41:06;3.37;;;1.10;;
41755;SDS011;27435;48.480;9.258;2024-03-23T07:43:36;2.17;;;1.10;;
41755;SDS011;27435;48.480;9.258;2024-03-23T07:46:02;1.90;;;0.53;;
41755;SDS011;27435;48.480;9.258;2024-03-23T07:48:31;1.70;;;0.70;;
41755;SDS011;27435;48.480;9.258;2024-03-23T07:51:16;1.50;;;0.70;;
41755;SDS011;27435;48.480;9.258;2024-03-23T07:53:44;2.83;;;0.70;;
41755;SDS011;27435;48.480;9.258;2024-03-23T07:56:14;2.57;;;0.67;;
41755;SDS011;27435;48.480;9.258;2024-03-23T07:58:40;1.00;;;0.60;;
41755;SDS011;27435;48.480;9.258;2024-03-23T08:01:16;1.50;;;0.60;;
41755;SDS011;27435;48.480;9.258;2024-03-23T08:08:50;2.00;;;0.70;;
41755;SDS011;27435;48.480;9.258;2024-03-23T08:11:25;1.58;;;0.68;;
41755;SDS011;27435;48.480;9.258;2024-03-23T08:13:51;1.33;;;0.57;;
41755;SDS011;27435;48.480;9.258;2024-03-23T08:16:17;0.90;;;0.40;;
41755;SDS011;27435;48.480;9.258;2024-03-23T08:18:43;0.53;;;0.30;;
41755;SDS011;27435;48.480;9.258;2024-03-23T08:21:09;0.43;;;0.30;;
41755;SDS011;27435;48.480;9.258;2024-03-23T08:23:35;0.80;;;0.30;;
41755;SDS011;27435;48.480;9.258;2024-03-23T08:26:05;0.70;;;0.30;;
41755;SDS011;27435;48.480;9.258;2024-03-23T08:28:35;0.93;;;0.30;;
41755;SDS011;27435;48.480;9.258;2024-03-23T08:31:01;0.77;;;0.30;;
41755;SDS011;27435;48.480;9.258;2024-03-23T08:33:30;1.47;;;0.60;;
41755;SDS011;27435;48.480;9.258;2024-03-23T08:36:00;1.47;;;0.50;;
41755;SDS011;27435;48.480;9.258;2024-03-23T08:38:30;1.27;;;0.43;;
41755;SDS011;27435;48.480;9.258;2024-03-23T08:40:59;2.97;;;0.67;;
41755;SDS011;27435;48.480;9.258;2024-03-23T08:43:27;0.87;;;0.40;;
41755;SDS011;27435;48.480;9.258;2024-03-23T08:46:02;1.27;;;0.50;;
41755;SDS011;27435;48.480;9.258;2024-03-23T08:48:29;1.83;;;0.60;;
41755;SDS011;27435;48.480;9.258;2024-03-23T08:51:02;2.43;;;0.80;;
41755;SDS011;27435;48.480;9.258;2024-03-23T08:53:29;1.77;;;0.67;;
41755;SDS011;27435;48.480;9.258;2024-03-23T08:55:55;3.60;;;1.57;;
41755;SDS011;27435;48.480;9.258;2024-03-23T08:58:25;2.57;;;1.20;;
41755;SDS011;27435;48.480;9.258;2024-03-23T09:00:51;2.57;;;1.00;;
41755;SDS011;27435;48.480;9.258;2024-03-23T09:03:20;4.57;;;1.50;;
41755;SDS011;27435;48.480;9.258;2024-03-23T09:05:46;7.20;;;2.20;;
41755;SDS011;27435;48.480;9.258;2024-03-23T09:08:12;4.03;;;1.53;;
41755;SDS011;27435;48.480;9.258;2024-03-23T09:10:40;3.63;;;1.10;;
41755;SDS011;27435;48.480;9.258;2024-03-23T09:13:07;4.37;;;2.10;;
41755;SDS011;27435;48.480;9.258;2024-03-23T09:15:36;7.70;;;1.60;;
41755;SDS011;27435;48.480;9.258;2024-03-23T09:18:11;5.67;;;1.70;;
41755;SDS011;27435;48.480;9.258;2024-03-23T09:20:37;3.77;;;1.43;;
41755;SDS011;27435;48.480;9.258;2024-03-23T09:23:02;5.07;;;1.87;;
41755;SDS011;27435;48.480;9.258;2024-03-23T09:25:28;5.80;;;1.73;;
41755;SDS011;27435;48.480;9.258;2024-03-23T09:27:54;8.67;;;2.50;;
41755;SDS011;27435;48.480;9.258;2024-03-23T09:30:19;11.30;;;2.67;;
41755;SDS011;27435;48.480;9.258;2024-03-23T09:32:45;7.00;;;2.00;;
41755;SDS011;27435;48.480;9.258;2024-03-23T09:35:11;6.23;;;2.47;;
41755;SDS011;27435;48.480;9.258;2024-03-23T09:37:38;6.83;;;2.40;;
41755;SDS011;27435;48.480;9.258;2024-03-23T09:40:05;6.40;;;2.03;;
41755;SDS011;27435;48.480;9.258;2024-03-23T09:42:34;9.53;;;2.50;;
41755;SDS011;27435;48.480;9.258;2024-03-23T09:44:59;7.17;;;2.30;;
41755;SDS011;27435;48.480;9.258;2024-03-23T09:47:26;7.40;;;2.20;;
41755;SDS011;27435;48.480;9.258;2024-03-23T09:49:52;8.37;;;2.97;;
41755;SDS011;27435;48.480;9.258;2024-03-23T09:52:18;6.80;;;2.00;;
41755;SDS011;27435;48.480;9.258;2024-03-23T09:54:44;4.93;;;1.97;;
41755;SDS011;27435;48.480;9.258;2024-03-23T09:57:10;4.00;;;2.07;;
41755;SDS011;27435;48.480;9.258;2024-03-23T09:59:35;6.93;;;2.87;;
41755;SDS011;27435;48.480;9.258;2024-03-23T10:02:01;6.37;;;2.87;;
41755;SDS011;27435;48.480;9.258;2024-03-23T10:04:39;8.43;;;2.70;;
41755;SDS011;27435;48.480;9.258;2024-03-23T10:07:13;7.50;;;2.53;;
41755;SDS011;27435;48.480;9.258;2024-03-23T10:09:40;4.17;;;1.50;;
41755;SDS011;27435;48.480;9.258;2024-03-23T10:12:12;6.00;;;2.03;;
41755;SDS011;27435;48.480;9.258;2024-03-23T10:14:39;7.43;;;2.23;;
41755;SDS011;27435;48.480;9.258;2024-03-23T10:17:19;6.40;;;2.83;;
41755;SDS011;27435;48.480;9.258;2024-03-23T10:19:50;9.93;;;2.30;;
41755;SDS011;27435;48.480;9.258;2024-03-23T10:22:20;10.23;;;2.07;;
41755;SDS011;27435;48.480;9.258;2024-03-23T10:24:47;6.97;;;2.27;;
41755;SDS011;27435;48.480;9.258;2024-03-23T10:27:20;6.07;;;2.33;;
41755;SDS011;27435;48.480;9.258;2024-03-23T10:29:47;7.43;;;2.90;;
41755;SDS011;27435;48.480;9.258;2024-03-23T10:32:16;4.60;;;1.93;;
41755;SDS011;27435;48.480;9.258;2024-03-23T10:34:43;6.67;;;2.43;;
41755;SDS011;27435;48.480;9.258;2024-03-23T10:37:09;7.07;;;2.33;;
41755;SDS011;27435;48.480;9.258;2024-03-23T10:39:36;7.90;;;2.43;;
41755;SDS011;27435;48.480;9.258;2024-03-23T10:42:06;7.23;;;2.47;;
41755;SDS011;27435;48.480;9.258;2024-03-23T10:44:33;4.97;;;2.57;;
41755;SDS011;27435;48.480;9.258;2024-03-23T10:46:59;5.07;;;2.00;;
41755;SDS011;27435;48.480;9.258;2024-03-23T10:49:29;5.50;;;2.37;;
41755;SDS011;27435;48.480;9.258;2024-03-23T10:51:57;6.97;;;2.13;;
41755;SDS011;27435;48.480;9.258;2024-03-23T10:54:30;9.83;;;3.30;;
41755;SDS011;27435;48.480;9.258;2024-03-23T10:57:09;9.27;;;3.13;;
41755;SDS011;27435;48.480;9.258;2024-03-23T10:59:39;8.03;;;2.57;;
41755;SDS011;27435;48.480;9.258;2024-03-23T11:02:05;8.17;;;2.37;;
41755;SDS011;27435;48.480;9.258;2024-03-23T11:04:36;5.50;;;2.00;;
41755;SDS011;27435;48.480;9.258;2024-03-23T11:07:28;13.73;;;3.17;;
41755;SDS011;27435;48.480;9.258;2024-03-23T11:09:51;13.23;;;3.17;;
41755;SDS011;27435;48.480;9.258;2024-03-23T11:12:24;3.93;;;1.40;;
41755;SDS011;27435;48.480;9.258;2024-03-23T11:14:58;5.37;;;1.57;;
41755;SDS011;27435;48.480;9.258;2024-03-23T11:17:29;3.40;;;1.60;;
41755;SDS011;27435;48.480;9.258;2024-03-23T11:22:40;9.07;;;2.37;;
41755;SDS011;27435;48.480;9.258;2024-03-23T11:27:40;7.37;;;1.47;;
41755;SDS011;27435;48.480;9.258;2024-03-23T11:32:38;5.90;;;1.80;;
41755;SDS011;27435;48.480;9.258;2024-03-23T11:35:04;7.30;;;1.93;;
41755;SDS011;27435;48.480;9.258;2024-03-23T11:37:30;7.73;;;2.03;;
41755;SDS011;27435;48.480;9.258;2024-03-23T11:39:56;8.50;;;2.40;;
41755;SDS011;27435;48.480;9.258;2024-03-23T11:42:21;4.87;;;2.10;;
41755;SDS011;27435;48.480;9.258;2024-03-23T11:44:47;5.70;;;1.63;;
41755;SDS011;27435;48.480;9.258;2024-03-23T11:47:13;6.33;;;1.73;;
41755;SDS011;27435;48.480;9.258;2024-03-23T11:49:38;5.80;;;1.73;;
41755;SDS011;27435;48.480;9.258;2024-03-23T11:52:06;4.93;;;1.40;;
41755;SDS011;27435;48.480;9.258;2024-03-23T11:54:32;7.00;;;2.27;;
41755;SDS011;27435;48.480;9.258;2024-03-23T12:02:11;7.97;;;2.60;;
41755;SDS011;27435;48.480;9.258;2024-03-23T12:07:10;12.00;;;2.17;;
41755;SDS011;27435;48.480;9.258;2024-03-23T12:09:36;4.63;;;1.77;;
41755;SDS011;27435;48.480;9.258;2024-03-23T12:12:20;10.47;;;1.97;;
41755;SDS011;27435;48.480;9.258;2024-03-23T12:15:00;8.27;;;1.97;;
41755;SDS011;27435;48.480;9.258;2024-03-23T12:17:27;5.73;;;2.03;;
41755;SDS011;27435;48.480;9.258;2024-03-23T12:19:53;5.30;;;2.00;;
41755;SDS011;27435;48.480;9.258;2024-03-23T12:22:21;7.13;;;1.77;;
41755;SDS011;27435;48.480;9.258;2024-03-23T12:24:48;5.60;;;1.40;;
41755;SDS011;27435;48.480;9.258;2024-03-23T12:27:14;3.17;;;1.63;;
41755;SDS011;27435;48.480;9.258;2024-03-23T12:29:40;3.40;;;1.13;;
41755;SDS011;27435;48.480;9.258;2024-03-23T12:32:11;8.30;;;1.50;;
41755;SDS011;27435;48.480;9.258;2024-03-23T12:34:37;5.90;;;2.17;;
41755;SDS011;27435;48.480;9.258;2024-03-23T12:37:03;7.07;;;2.60;;
41755;SDS011;27435;48.480;9.258;2024-03-23T12:39:28;6.43;;;1.80;;
41755;SDS011;27435;48.480;9.258;2024-03-23T12:41:54;5.03;;;1.47;;
41755;SDS011;27435;48.480;9.258;2024-03-23T12:44:20;6.77;;;1.50;;
41755;SDS011;27435;48.480;9.258;2024-03-23T12:46:46;6.77;;;1.70;;
41755;SDS011;27435;48.480;9.258;2024-03-23T12:49:12;3.60;;;1.40;;
41755;SDS011;27435;48.480;9.258;2024-03-23T12:51:38;6.03;;;1.80;;
41755;SDS011;27435;48.480;9.258;2024-03-23T12:54:04;6.27;;;1.43;;
41755;SDS011;27435;48.480;9.258;2024-03-23T12:56:29;6.60;;;1.40;;
41755;SDS011;27435;48.480;9.258;2024-03-23T12:58:58;4.70;;;1.20;;
41755;SDS011;27435;48.480;9.258;2024-03-23T13:01:24;6.10;;;1.77;;
41755;SDS011;27435;48.480;9.258;2024-03-23T13:03:50;3.93;;;1.80;;
41755;SDS011;27435;48.480;9.258;2024-03-23T13:06:16;5.23;;;1.17;;
41755;SDS011;27435;48.480;9.258;2024-03-23T13:08:46;4.33;;;1.70;;
41755;SDS011;27435;48.480;9.258;2024-03-23T13:11:12;4.67;;;1.37;;
41755;SDS011;27435;48.480;9.258;2024-03-23T13:13:39;6.00;;;1.20;;
41755;SDS011;27435;48.480;9.258;2024-03-23T13:16:05;3.23;;;1.30;;
41755;SDS011;27435;48.480;9.258;2024-03-23T13:18:31;5.03;;;1.70;;
41755;SDS011;27435;48.480;9.258;2024-03-23T13:20:58;7.03;;;1.80;;
41755;SDS011;27435;48.480;9.258;2024-03-23T13:23:23;3.57;;;2.20;;
41755;SDS011;27435;48.480;9.258;2024-03-23T13:25:52;6.37;;;2.53;;
41755;SDS011;27435;48.480;9.258;2024-03-23T13:28:23;5.60;;;1.30;;
41755;SDS011;27435;48.480;9.258;2024-03-23T13:30:50;7.90;;;2.57;;
41755;SDS011;27435;48.480;9.258;2024-03-23T13:33:18;4.73;;;2.20;;
41755;SDS011;27435;48.480;9.258;2024-03-23T13:35:54;3.63;;;1.50;;
41755;SDS011;27435;48.480;9.258;2024-03-23T13:38:21;5.17;;;2.03;;
41755;SDS011;27435;48.480;9.258;2024-03-23T13:40:53;8.87;;;1.43;;
41755;SDS011;27435;48.480;9.258;2024-03-23T13:43:19;7.20;;;2.00;;
41755;SDS011;27435;48.480;9.258;2024-03-23T13:45:46;7.67;;;2.27;;
41755;SDS011;27435;48.480;9.258;2024-03-23T13:48:13;8.57;;;1.63;;
41755;SDS011;27435;48.480;9.258;2024-03-23T13:50:40;5.27;;;1.47;;
41755;SDS011;27435;48.480;9.258;2024-03-23T13:53:06;4.57;;;1.70;;
41755;SDS011;27435;48.480;9.258;2024-03-23T13:55:33;6.00;;;1.87;;
41755;SDS011;27435;48.480;9.258;2024-03-23T13:57:58;8.30;;;1.80;;
41755;SDS011;27435;48.480;9.258;2024-03-23T14:00:24;5.47;;;1.17;;
41755;SDS011;27435;48.480;9.258;2024-03-23T14:02:50;6.67;;;1.60;;
41755;SDS011;27435;48.480;9.258;2024-03-23T14:05:15;2.87;;;0.90;;
41755;SDS011;27435;48.480;9.258;2024-03-23T14:07:41;5.67;;;1.20;;
41755;SDS011;27435;48.480;9.258;2024-03-23T14:10:07;2.93;;;1.30;;
41755;SDS011;27435;48.480;9.258;2024-03-23T14:12:35;6.80;;;1.20;;
41755;SDS011;27435;48.480;9.258;2024-03-23T14:15:04;3.30;;;1.03;;
41755;SDS011;27435;48.480;9.258;2024-03-23T14:17:31;5.97;;;2.00;;
41755;SDS011;27435;48.480;9.258;2024-03-23T14:19:57;6.20;;;1.60;;
41755;SDS011;27435;48.480;9.258;2024-03-23T14:22:26;5.40;;;1.10;;
41755;SDS011;27435;48.480;9.258;2024-03-23T14:24:54;4.63;;;1.13;;
41755;SDS011;27435;48.480;9.258;2024-03-23T14:27:20;4.27;;;1.27;;
41755;SDS011;27435;48.480;9.258;2024-03-23T14:29:49;3.20;;;1.33;;
41755;SDS011;27435;48.480;9.258;2024-03-23T14:32:15;3.73;;;1.10;;
41755;SDS011;27435;48.480;9.258;2024-03-23T14:34:41;8.90;;;1.57;;
41755;SDS011;27435;48.480;9.258;2024-03-23T14:37:07;3.10;;;1.20;;
41755;SDS011;27435;48.480;9.258;2024-03-23T14:39:33;5.70;;;1.53;;
41755;SDS011;27435;48.480;9.258;2024-03-23T14:42:02;5.37;;;1.03;;
41755;SDS011;27435;48.480;9.258;2024-03-23T14:44:28;6.43;;;1.23;;
41755;SDS011;27435;48.480;9.258;2024-03-23T14:46:54;4.03;;;1.13;;
41755;SDS011;27435;48.480;9.258;2024-03-23T14:49:20;4.03;;;1.00;;
41755;SDS011;27435;48.480;9.258;2024-03-23T14:51:46;3.57;;;1.03;;
41755;SDS011;27435;48.480;9.258;2024-03-23T14:54:12;2.10;;;0.83;;
41755;SDS011;27435;48.480;9.258;2024-03-23T14:56:38;5.63;;;1.03;;
41755;SDS011;27435;48.480;9.258;2024-03-23T14:59:04;4.03;;;0.83;;
41755;SDS011;27435;48.480;9.258;2024-03-23T15:01:31;3.93;;;1.40;;
41755;SDS011;27435;48.480;9.258;2024-03-23T15:03:57;7.30;;;1.40;;
41755;SDS011;27435;48.480;9.258;2024-03-23T15:06:22;4.20;;;1.17;;
41755;SDS011;27435;48.480;9.258;2024-03-23T15:08:48;4.23;;;1.90;;
41755;SDS011;27435;48.480;9.258;2024-03-23T15:11:14;3.70;;;1.10;;
41755;SDS011;27435;48.480;9.258;2024-03-23T15:13:43;2.87;;;0.60;;
41755;SDS011;27435;48.480;9.258;2024-03-23T15:16:08;4.10;;;0.77;;
41755;SDS011;27435;48.480;9.258;2024-03-23T15:18:34;3.03;;;0.90;;
41755;SDS011;27435;48.480;9.258;2024-03-23T15:21:01;3.07;;;0.90;;
41755;SDS011;27435;48.480;9.258;2024-03-23T15:23:28;4.57;;;1.20;;
41755;SDS011;27435;48.480;9.258;2024-03-23T15:25:55;5.17;;;1.30;;
41755;SDS011;27435;48.480;9.258;2024-03-23T15:28:21;2.27;;;0.87;;
41755;SDS011;27435;48.480;9.258;2024-03-23T15:30:52;4.00;;;1.50;;
41755;SDS011;27435;48.480;9.258;2024-03-23T15:33:18;3.03;;;0.93;;
41755;SDS011;27435;48.480;9.258;2024-03-23T15:35:44;3.03;;;0.73;;
41755;SDS011;27435;48.480;9.258;2024-03-23T15:38:09;3.53;;;0.60;;
41755;SDS011;27435;48.480;9.258;2024-03-23T15:40:35;5.07;;;0.50;;
41755;SDS011;27435;48.480;9.258;2024-03-23T15:43:01;1.83;;;0.67;;
41755;SDS011;27435;48.480;9.258;2024-03-23T15:45:26;2.77;;;0.70;;
41755;SDS011;27435;48.480;9.258;2024-03-23T15:47:52;2.67;;;0.80;;
41755;SDS011;27435;48.480;9.258;2024-03-23T15:50:18;4.00;;;1.10;;
41755;SDS011;27435;48.480;9.258;2024-03-23T15:52:43;3.37;;;1.10;;
41755;SDS011;27435;48.480;9.258;2024-03-23T15:55:09;2.57;;;0.90;;
41755;SDS011;27435;48.480;9.258;2024-03-23T15:57:35;6.80;;;1.50;;
41755;SDS011;27435;48.480;9.258;2024-03-23T16:00:02;2.63;;;1.10;;